KATL/ATL METAR and TAF weather

Enter ICAO airport designator
Station Type Date Time Source
KATL METAR 2020/08/10 18:14 UTC NOAA

KATL 101814Z 25012G24KT 9SM -TSRA SCT050CB SCT100 BKN200 BKN250 30/21 A3008 RMK AO2 LTG DSNT N AND NW RAB14 TSB12 OCNL LTGICCGCA SW-W TS SW-W MOV SE CB DSNT N S NW TCU ALQDS SHRA SW-W P0000 T03000206


Station Type Date Time Source
KATL Decoded METAR 2020/08/10 18:14 UTC NOAA

HARTSFIELD-JACKSON ATLANTA, GA, United States (KATL) 33-39N 84-26W
Aug 10, 2020 - 02:14 PM EDT / 2020.08.10 1814 UTC
Wind: from the WSW (250 degrees) at 14 MPH (12 KT) gusting to 28 MPH (24 KT):0
Visibility: 9 mile(s):0
Sky conditions: mostly cloudy
Weather: light rain with thunder; Cumulonimbus clouds, towering cumulus clouds, lightning observed
Precipitation last hour: A trace
Temperature: 86.0 F (30.0 C)
Dew Point: 69.1 F (20.6 C)
Relative Humidity: 57%
Pressure (altimeter): 30.08 in. Hg (1018 hPa)
ob: KATL 101814Z 25012G24KT 9SM -TSRA SCT050CB SCT100 BKN200 BKN250 30/21 A3008 RMK AO2 LTG DSNT N AND NW RAB14 TSB12 OCNL LTGICCGCA SW-W TS SW-W MOV SE CB DSNT N S NW TCU ALQDS SHRA SW-W P0000 T03000206
cycle: 18

Station Type Date Time Source
KATL TAF 2020/08/10 18:34 UTC NOAA

TAF KATL 101732Z 1018/1124 30008KT P6SM VCSH BKN050
TEMPO 1018/1022 VRB15G25KT 3SM TSRA BKN025CB
FM110200 29005KT P6SM VCSH BKN045
FM110700 28004KT P6SM SCT050 BKN200
FM111500 31005KT P6SM SCT035 SCT250
FM111800 31007KT P6SM VCSH SCT045

Example: see airport list